createdAt,value
2023-03-29T00:08:06.637Z,1001
2023-03-29T00:37:22.430Z,1001
2023-03-29T01:06:44.180Z,1002
2023-03-29T01:35:52.856Z,1001
2023-03-29T02:05:06.508Z,1000
2023-03-29T02:34:19.027Z,1000
2023-03-29T03:03:31.872Z,1000
2023-03-29T03:32:39.474Z,1000
2023-03-29T04:01:46.903Z,1000
2023-03-29T04:31:03.001Z,1000
2023-03-29T05:00:01.767Z,1000
2023-03-29T05:29:12.556Z,1000
2023-03-29T05:58:28.710Z,1000
2023-03-29T06:27:42.867Z,1000
2023-03-29T06:56:56.203Z,1000
2023-03-29T07:26:05.865Z,1000
2023-03-29T07:55:21.070Z,1000
2023-03-29T08:24:38.932Z,1000
2023-03-29T08:53:54.823Z,1000
2023-03-29T09:23:12.082Z,1000
2023-03-29T09:52:27.518Z,1000
2023-03-29T10:21:47.298Z,999
2023-03-29T10:51:09.879Z,999
2023-03-29T11:20:34.497Z,999
2023-03-29T11:49:59.276Z,999
2023-03-29T12:19:21.353Z,999
2023-03-29T12:48:46.869Z,999
2023-03-29T13:18:13.171Z,998
2023-03-29T13:47:06.983Z,998
2023-03-29T14:16:28.094Z,998
2023-03-29T14:45:52.653Z,998
2023-03-29T15:15:17.618Z,997
2023-03-29T15:44:31.589Z,997
2023-03-29T16:13:50.009Z,997
2023-03-29T16:42:55.762Z,997
2023-03-29T17:12:12.972Z,997
2023-03-29T17:41:33.149Z,996
2023-03-29T18:10:51.479Z,996
2023-03-29T18:40:17.219Z,996
2023-03-29T19:09:39.742Z,996
2023-03-29T19:38:55.891Z,996
2023-03-29T20:08:07.931Z,996
2023-03-29T20:37:22.196Z,996
2023-03-29T21:06:38.101Z,995
2023-03-29T21:36:00.889Z,995
2023-03-29T22:05:18.559Z,995
2023-03-29T22:34:43.356Z,995
2023-03-29T23:04:07.454Z,994
2023-03-29T23:33:24.728Z,994
